Time;durP1;ratioP1;P1;durP2;ratioP2;P2;SDS_P1;SDS_P2;PMS_P1;PMS_P2;Temp;Humidity;BMP_temperature;BMP_pressure;BME280_temperature;BME280_humidity;BME280_pressure;Samples;Min_cycle;Max_cycle;Signal;HPM_P1;HPM_P2
2023/07/12 00:05:08;;;;;;;2.58;1.00;;;;;;;24.61;42.02;100900.06;16116652;19;129821;-51
2023/07/12 00:10:34;;;;;;;2.40;0.80;;;;;;;24.61;42.07;100911.25;16115398;19;130113;-46
2023/07/12 00:15:56;;;;;;;1.60;0.90;;;;;;;24.58;42.05;100913.50;16117836;19;130454;-56
2023/07/12 00:21:23;;;;;;;1.95;0.85;;;;;;;24.60;42.27;100915.19;16117054;19;129472;-52
2023/07/12 00:26:45;;;;;;;1.80;1.00;;;;;;;24.57;42.20;100917.44;16110665;19;129505;-54
2023/07/12 00:32:08;;;;;;;4.28;1.15;;;;;;;24.56;42.01;100915.75;16111338;19;130621;-53
2023/07/12 00:37:30;;;;;;;2.05;0.80;;;;;;;24.55;41.77;100933.66;16113045;19;129756;-49
2023/07/12 00:43:01;;;;;;;1.80;0.68;;;;;;;24.56;42.16;100935.31;16116062;19;129535;-52
2023/07/12 00:48:23;;;;;;;2.30;1.10;;;;;;;24.54;41.73;100939.53;16109306;19;129659;-48
2023/07/12 00:53:45;;;;;;;1.70;0.90;;;;;;;24.52;41.81;100939.00;16111862;19;129778;-49
2023/07/12 00:59:18;;;;;;;1.90;0.90;;;;;;;24.52;41.88;100948.19;16098761;19;131685;-48
2023/07/12 01:04:43;;;;;;;2.22;0.88;;;;;;;24.52;41.83;100969.75;16106552;19;131386;-48
2023/07/12 01:10:08;;;;;;;2.05;0.80;;;;;;;24.50;41.77;100964.44;16113847;19;130294;-47
2023/07/12 01:15:32;;;;;;;4.35;0.90;;;;;;;24.49;41.95;100923.63;16111167;19;129524;-48
2023/07/12 01:21:15;;;;;;;2.92;0.95;;;;;;;24.51;41.83;100921.34;16110934;19;134315;-45
2023/07/12 01:26:41;;;;;;;1.90;0.80;;;;;;;24.49;42.07;100904.06;16106134;19;131114;-48
2023/07/12 01:32:04;;;;;;;3.15;0.80;;;;;;;24.48;41.95;100863.22;16107819;19;129614;-46
2023/07/12 01:37:26;;;;;;;1.65;0.60;;;;;;;24.49;41.77;100825.75;16104268;19;130892;-47
2023/07/12 01:42:48;;;;;;;1.60;0.90;;;;;;;24.48;42.18;100829.66;16108771;19;129628;-52
2023/07/12 01:48:10;;;;;;;1.10;0.70;;;;;;;24.48;42.40;100804.50;16098424;19;129706;-51
2023/07/12 01:53:33;;;;;;;2.17;0.90;;;;;;;24.48;42.38;100909.91;16101035;19;131151;-49
2023/07/12 01:58:55;;;;;;;2.00;0.80;;;;;;;24.48;42.11;100907.97;16103531;19;130620;-49
2023/07/12 02:04:17;;;;;;;0.95;0.60;;;;;;;24.47;42.44;100934.25;16099518;19;131490;-49
2023/07/12 02:09:40;;;;;;;1.23;0.63;;;;;;;24.47;42.21;100931.47;16105656;19;130883;-50
2023/07/12 02:15:03;;;;;;;1.50;0.77;;;;;;;24.47;42.22;100928.66;16102840;19;130268;-46
2023/07/12 02:20:25;;;;;;;1.33;0.70;;;;;;;24.46;42.28;100901.81;16107713;19;130179;-48
2023/07/12 02:25:48;;;;;;;1.13;0.70;;;;;;;24.46;42.29;100904.63;16110293;19;129489;-45
2023/07/12 02:31:21;;;;;;;0.73;0.60;;;;;;;24.46;42.18;100910.22;16104537;19;131286;-49
2023/07/12 02:36:43;;;;;;;0.95;0.57;;;;;;;24.45;42.38;100925.31;16107453;19;130700;-51
2023/07/12 02:42:05;;;;;;;1.98;0.60;;;;;;;24.45;42.21;100932.84;16106472;19;130232;-45
2023/07/12 02:47:27;;;;;;;1.00;0.55;;;;;;;24.45;42.42;100924.47;16106491;19;131005;-48
2023/07/12 02:52:49;;;;;;;1.77;0.73;;;;;;;24.45;42.39;100918.88;16099927;19;129412;-50
2023/07/12 02:58:11;;;;;;;1.60;0.70;;;;;;;24.44;42.23;100932.03;16103402;19;129732;-47
2023/07/12 03:03:33;;;;;;;1.20;0.57;;;;;;;24.43;42.53;100933.16;16110361;19;131134;-49
2023/07/12 03:08:55;;;;;;;1.30;0.50;;;;;;;24.43;42.06;100941.53;16115933;19;130691;-50
2023/07/12 03:14:19;;;;;;;1.42;0.60;;;;;;;24.42;42.42;100937.91;16113644;19;130291;-49
2023/07/12 03:19:41;;;;;;;0.98;0.60;;;;;;;24.42;42.24;100931.47;16117179;19;130515;-48
2023/07/12 03:25:03;;;;;;;1.33;0.50;;;;;;;24.41;42.39;100946.56;16115175;19;130862;-48
2023/07/12 03:30:26;;;;;;;1.08;0.65;;;;;;;24.41;42.34;100957.75;16116408;19;130861;-49
2023/07/12 03:35:51;;;;;;;2.35;0.63;;;;;;;24.41;42.69;100957.75;16112877;19;130175;-48
2023/07/12 03:41:15;;;;;;;;;;;;;;;24.37;42.44;100951.09;16118054;19;130041;-48
2023/07/12 03:46:40;;;;;;;1.48;0.60;;;;;;;24.39;42.41;100957.19;16117829;19;129491;-48
2023/07/12 03:52:02;;;;;;;1.33;0.60;;;;;;;24.37;42.30;100949.09;16113991;19;130352;-51
2023/07/12 03:57:25;;;;;;;1.23;0.50;;;;;;;24.38;42.57;100955.53;16113629;19;129220;-47
2023/07/12 04:02:47;;;;;;;1.05;0.70;;;;;;;24.36;42.45;100963.38;16118307;19;129650;-50
2023/07/12 04:08:12;;;;;;;2.95;0.65;;;;;;;24.37;42.50;100967.84;16111371;19;130692;-51
2023/07/12 04:13:34;;;;;;;0.83;0.60;;;;;;;24.35;42.64;100976.50;16107778;19;134985;-49
2023/07/12 04:18:57;;;;;;;1.38;0.40;;;;;;;24.35;42.76;100984.91;16115936;19;129724;-51
2023/07/12 04:24:19;;;;;;;1.33;0.52;;;;;;;24.34;42.88;100986.00;16117626;19;129762;-49
2023/07/12 04:29:42;;;;;;;1.38;0.52;;;;;;;24.34;42.66;100982.41;16112235;19;129857;-46
2023/07/12 04:35:04;;;;;;;2.60;0.55;;;;;;;24.34;42.66;100979.59;16113062;19;130835;-49
2023/07/12 04:40:26;;;;;;;1.27;0.47;;;;;;;24.34;42.56;100976.81;16109249;19;132234;-48
2023/07/12 04:45:49;;;;;;;1.23;0.50;;;;;;;24.33;42.67;100986.31;16108326;19;130142;-50
2023/07/12 04:51:11;;;;;;;1.42;0.60;;;;;;;24.33;42.89;100994.69;16116236;19;129722;-50
2023/07/12 04:56:33;;;;;;;1.00;0.50;;;;;;;24.32;42.71;101002.22;16111332;19;130277;-47
2023/07/12 05:01:55;;;;;;;1.60;0.50;;;;;;;24.32;42.91;101001.41;16109034;19;129842;-51
2023/07/12 05:07:17;;;;;;;1.48;0.55;;;;;;;24.30;42.53;101004.50;16107217;19;131565;-49
2023/07/12 05:12:40;;;;;;;3.45;0.52;;;;;;;24.30;42.89;101000.84;16110667;19;130385;-48
2023/07/12 05:18:02;;;;;;;0.95;0.70;;;;;;;24.29;42.96;101005.63;16113117;19;130660;-48
2023/07/12 05:23:24;;;;;;;3.53;0.65;;;;;;;24.28;42.85;101009.53;16111064;19;130593;-48
2023/07/12 05:28:46;;;;;;;3.20;0.82;;;;;;;24.26;42.73;101020.16;16113690;19;129820;-45
2023/07/12 05:34:08;;;;;;;3.05;0.70;;;;;;;24.25;42.69;101022.09;16112588;19;129322;-47
2023/07/12 05:39:30;;;;;;;4.28;0.95;;;;;;;24.25;42.71;101021.28;16111283;19;131140;-50
2023/07/12 05:44:52;;;;;;;2.60;0.70;;;;;;;24.24;42.33;101031.63;16109045;19;130792;-52
2023/07/12 05:50:17;;;;;;;4.03;0.90;;;;;;;24.22;42.61;101022.66;16107822;19;134652;-48
2023/07/12 05:55:39;;;;;;;4.15;0.90;;;;;;;24.21;42.78;101036.91;16104853;19;130685;-49
2023/07/12 06:01:02;;;;;;;3.63;0.95;;;;;;;24.18;42.50;101043.91;16103816;19;130113;-47
2023/07/12 06:06:24;;;;;;;2.67;1.00;;;;;;;24.20;42.43;101047.25;16109457;19;130877;-51
2023/07/12 06:11:46;;;;;;;4.18;1.00;;;;;;;24.21;42.04;101040.53;16108612;19;130459;-48
2023/07/12 06:17:08;;;;;;;2.67;1.10;;;;;;;24.22;42.17;101055.34;16106253;19;129574;-50
2023/07/12 06:22:31;;;;;;;4.97;1.35;;;;;;;24.21;42.15;101048.94;16113890;19;129841;-49
2023/07/12 06:27:53;;;;;;;6.03;1.73;;;;;;;24.21;42.09;101060.13;16107263;19;130621;-51
2023/07/12 06:33:16;;;;;;;6.35;1.40;;;;;;;24.21;41.94;101065.69;16107913;19;130645;-50
2023/07/12 06:38:38;;;;;;;4.20;1.17;;;;;;;24.23;42.08;101069.06;16126311;19;131093;-49
2023/07/12 06:44:00;;;;;;;6.40;1.58;;;;;;;24.31;41.96;101081.63;16121161;19;129786;-51
2023/07/12 06:49:22;;;;;;;5.07;1.60;;;;;;;24.29;41.72;101097.88;16119074;19;131513;-46
2023/07/12 06:54:44;;;;;;;3.13;1.48;;;;;;;24.29;41.87;101100.66;16124323;19;130037;-46
2023/07/12 07:00:08;;;;;;;4.88;1.23;;;;;;;24.27;42.18;101097.31;16122619;19;131319;-48
2023/07/12 07:05:32;;;;;;;5.87;1.63;;;;;;;24.26;41.80;101104.84;16118995;19;129605;-50
2023/07/12 07:10:54;;;;;;;5.35;1.27;;;;;;;24.26;41.72;101106.81;16121666;19;132295;-47
2023/07/12 07:16:17;;;;;;;4.25;1.38;;;;;;;24.25;42.09;101105.97;16118016;19;131253;-49
2023/07/12 07:21:41;;;;;;;6.53;1.58;;;;;;;24.24;41.95;101115.50;16120234;19;132387;-49
2023/07/12 07:27:03;;;;;;;6.07;1.40;;;;;;;24.25;41.85;101125.53;16121328;19;129429;-50
2023/07/12 07:32:25;;;;;;;6.72;1.40;;;;;;;24.25;41.81;101145.09;16120301;19;131344;-49
2023/07/12 07:37:48;;;;;;;6.43;1.85;;;;;;;24.25;41.79;101136.72;16123019;19;131344;-49
2023/07/12 07:43:13;;;;;;;3.55;1.23;;;;;;;24.25;41.95;101133.91;16122581;19;130417;-48
2023/07/12 07:48:35;;;;;;;5.72;1.95;;;;;;;24.22;41.92;101140.06;16117236;19;130886;-49
2023/07/12 07:53:57;;;;;;;4.63;1.35;;;;;;;24.24;41.69;101154.63;16118921;19;129561;-49
2023/07/12 07:59:19;;;;;;;3.95;1.40;;;;;;;24.25;41.65;101161.88;16117867;19;131660;-52
2023/07/12 08:04:41;;;;;;;4.45;1.40;;;;;;;24.25;41.65;101167.47;16115595;19;129239;-48
2023/07/12 08:10:04;;;;;;;6.45;1.38;;;;;;;24.28;41.22;101163.28;16119251;19;130422;-48
2023/07/12 08:15:26;;;;;;;6.78;1.75;;;;;;;24.27;41.55;101168.03;16114692;19;129476;-47
2023/07/12 08:20:48;;;;;;;8.77;1.70;;;;;;;24.29;41.42;101164.13;16116289;19;129572;-46
2023/07/12 08:26:10;;;;;;;6.72;1.60;;;;;;;24.29;41.35;101167.78;16112914;19;130262;-49
2023/07/12 08:31:33;;;;;;;4.65;1.30;;;;;;;24.27;41.59;101161.63;16113627;19;131625;-53
2023/07/12 08:36:55;;;;;;;8.48;1.58;;;;;;;24.27;40.80;101175.59;16118268;19;129519;-50
2023/07/12 08:42:21;;;;;;;8.50;1.70;;;;;;;24.26;40.94;101174.75;16112517;19;130441;-52
2023/07/12 08:47:43;;;;;;;8.43;1.67;;;;;;;24.26;40.58;101171.13;16114598;19;131660;-52
2023/07/12 08:53:10;;;;;;;7.78;1.67;;;;;;;24.27;40.47;101170.81;16108765;19;130293;-54
2023/07/12 08:58:39;;;;;;;6.32;1.20;;;;;;;24.25;40.01;101170.25;16111069;19;130449;-52
2023/07/12 09:04:01;;;;;;;6.75;1.60;;;;;;;24.22;40.36;101170.81;16108850;19;130209;-51
2023/07/12 09:09:24;;;;;;;9.00;1.50;;;;;;;24.27;40.26;101175.59;16110588;19;130288;-51
2023/07/12 09:14:46;;;;;;;6.38;1.77;;;;;;;24.24;40.09;101182.59;16109054;19;131086;-52
2023/07/12 09:20:24;;;;;;;10.60;1.77;;;;;;;24.29;39.63;101178.97;16108294;19;130927;-55
2023/07/12 09:25:54;;;;;;;11.63;2.42;;;;;;;24.27;40.31;101175.59;16106214;19;130322;-49
2023/07/12 09:31:21;;;;;;;8.55;1.80;;;;;;;24.29;40.08;101169.72;16109815;19;130519;-52
2023/07/12 09:36:43;;;;;;;7.03;1.77;;;;;;;24.27;40.11;101164.41;16106046;19;131100;-53
2023/07/12 09:42:10;;;;;;;7.82;2.20;;;;;;;24.30;40.01;101151.81;16105516;19;130095;-52
2023/07/12 09:47:44;;;;;;;8.95;1.83;;;;;;;24.31;40.21;101154.31;16108370;19;129709;-51
2023/07/12 09:53:34;;;;;;;8.65;1.70;;;;;;;24.30;39.93;101151.81;16104593;19;130154;-53
2023/07/12 09:59:18;;;;;;;9.77;2.00;;;;;;;24.33;39.63;101157.69;16101418;19;130941;-55
2023/07/12 10:04:49;;;;;;;7.18;1.80;;;;;;;24.30;39.67;101152.69;16104755;19;131423;-51
2023/07/12 10:10:31;;;;;;;7.10;1.45;;;;;;;24.27;39.46;101142.03;16101203;19;130693;-52
2023/07/12 10:15:59;;;;;;;8.63;1.52;;;;;;;24.27;39.81;101154.06;16109671;19;129157;-51
2023/07/12 10:21:25;;;;;;;5.95;1.55;;;;;;;24.32;39.36;101161.59;16109142;19;129623;-54
2023/07/12 10:26:47;;;;;;;9.43;1.95;;;;;;;24.36;39.22;101157.13;16109377;19;130613;-51
2023/07/12 10:32:19;;;;;;;5.70;1.50;;;;;;;24.40;39.29;101160.19;16109314;19;130232;-50
2023/07/12 10:37:50;;;;;;;6.82;1.70;;;;;;;24.42;39.50;101160.75;16108161;19;131023;-51
2023/07/12 10:43:18;;;;;;;6.10;1.70;;;;;;;24.43;39.67;101162.44;16108724;19;129817;-52
2023/07/12 10:48:48;;;;;;;5.93;1.40;;;;;;;24.45;39.75;101160.22;16106741;19;130323;-50
2023/07/12 10:54:29;;;;;;;14.57;2.15;;;;;;;24.47;39.23;101157.97;16105210;19;129688;-52
2023/07/12 11:00:22;;;;;;;7.65;1.77;;;;;;;24.51;39.47;101161.88;16110345;19;131321;-52
2023/07/12 11:05:46;;;;;;;7.30;1.73;;;;;;;24.49;39.22;101161.34;16104504;19;130636;-55
2023/07/12 11:11:08;;;;;;;10.52;1.90;;;;;;;24.48;39.30;101165.25;16102138;19;129731;-56
2023/07/12 11:16:32;;;;;;;6.55;1.67;;;;;;;24.51;39.16;101166.63;16113105;19;129669;-53
2023/07/12 11:22:03;;;;;;;6.57;1.50;;;;;;;24.53;38.96;101162.44;16119941;19;134508;-53
2023/07/12 11:27:39;;;;;;;6.57;1.40;;;;;;;24.55;38.63;101154.59;16126772;19;131552;-55
2023/07/12 11:33:12;;;;;;;3.85;1.50;;;;;;;24.56;38.91;101152.63;16122491;19;130034;-56
2023/07/12 11:38:36;;;;;;;8.57;1.73;;;;;;;24.56;38.71;101161.88;16125113;19;131145;-55
2023/07/12 11:44:06;;;;;;;10.25;1.27;;;;;;;24.58;38.47;101151.25;16118856;19;129431;-54
2023/07/12 11:49:30;;;;;;;5.80;1.13;;;;;;;24.57;38.57;101157.97;16119080;19;129666;-54
2023/07/12 11:54:53;;;;;;;4.53;1.20;;;;;;;24.55;38.71;101154.59;16119503;19;130177;-53
2023/07/12 12:00:23;;;;;;;4.90;1.58;;;;;;;24.54;38.70;101155.72;16114559;19;130301;-52
2023/07/12 12:05:46;;;;;;;7.03;1.83;;;;;;;24.51;38.63;101159.06;16120026;19;130304;-54
2023/07/12 12:11:10;;;;;;;5.50;1.27;;;;;;;24.49;39.02;101161.34;16118923;19;130734;-51
2023/07/12 12:16:33;;;;;;;4.53;1.13;;;;;;;24.48;39.21;101159.66;16115450;19;131108;-50
2023/07/12 12:22:14;;;;;;;6.28;1.20;;;;;;;24.48;39.10;101168.03;16119285;19;130601;-49
2023/07/12 12:27:38;;;;;;;2.25;0.90;;;;;;;24.47;39.09;101157.97;16116052;19;129614;-53
2023/07/12 12:33:04;;;;;;;4.00;1.10;;;;;;;24.47;39.30;101159.91;16113609;19;129650;-50
2023/07/12 12:38:33;;;;;;;4.35;1.20;;;;;;;24.47;39.18;101168.31;16118036;19;130553;-50
2023/07/12 12:44:04;;;;;;;4.45;1.25;;;;;;;24.46;38.92;101159.09;16113332;19;130340;-52
2023/07/12 12:49:31;;;;;;;3.20;0.98;;;;;;;24.47;38.79;101157.97;16113108;19;130195;-52
2023/07/12 12:55:03;;;;;;;5.63;1.00;;;;;;;24.47;38.83;101162.72;16113524;19;130740;-52
2023/07/12 13:00:33;;;;;;;5.32;1.52;;;;;;;24.46;39.18;101161.88;16115922;19;129723;-50
2023/07/12 13:05:58;;;;;;;4.65;1.00;;;;;;;24.46;39.19;101156.31;16115690;19;129509;-46
2023/07/12 13:11:21;;;;;;;4.07;1.00;;;;;;;24.45;38.91;101171.41;16103082;19;132135;-54
2023/07/12 13:16:46;;;;;;;4.40;1.08;;;;;;;24.43;39.23;101177.25;16106092;19;129685;-50
2023/07/12 13:22:12;;;;;;;4.05;0.88;;;;;;;24.42;39.14;101177.53;16106741;19;129596;-55
2023/07/12 13:27:37;;;;;;;5.07;1.08;;;;;;;24.42;39.14;101171.94;16112262;19;130744;-53
2023/07/12 13:32:59;;;;;;;2.67;0.90;;;;;;;24.43;39.21;101176.44;16110728;19;129570;-52
2023/07/12 13:38:21;;;;;;;2.63;1.02;;;;;;;24.42;39.06;101185.94;16112229;19;129531;-52
2023/07/12 13:43:46;;;;;;;3.70;1.00;;;;;;;24.42;39.18;101177.53;16112253;19;129421;-53
2023/07/12 13:49:28;;;;;;;3.92;0.82;;;;;;;24.45;39.46;101193.78;16110175;19;130554;-51
2023/07/12 13:54:50;;;;;;;4.68;1.00;;;;;;;24.50;39.19;101185.34;16110389;19;130460;-48
2023/07/12 14:00:21;;;;;;;3.42;1.00;;;;;;;24.57;39.02;101180.34;16107610;19;129788;-48
2023/07/12 14:05:45;;;;;;;4.22;1.08;;;;;;;24.60;39.02;101178.94;16107267;19;129886;-50
2023/07/12 14:11:29;;;;;;;13.80;1.20;;;;;;;24.64;38.88;101182.00;16104493;19;129635;-51
2023/07/12 14:16:51;;;;;;;3.00;0.90;;;;;;;24.66;38.46;101189.00;16110575;19;129842;-50
2023/07/12 14:22:17;;;;;;;5.28;1.13;;;;;;;24.68;38.84;101188.72;16107950;19;129512;-46
2023/07/12 14:27:40;;;;;;;4.18;1.05;;;;;;;24.68;38.52;101200.72;16111458;19;129353;-52
2023/07/12 14:33:04;;;;;;;2.17;0.80;;;;;;;24.71;38.44;101210.53;16109440;19;130230;-50
2023/07/12 14:38:26;;;;;;;3.53;1.17;;;;;;;24.72;38.19;101204.66;16106908;19;129867;-51
2023/07/12 14:43:48;;;;;;;3.22;1.00;;;;;;;24.74;38.51;101201.56;16107203;19;130084;-53
2023/07/12 14:49:10;;;;;;;3.15;1.00;;;;;;;24.75;38.41;101199.63;16078670;19;129695;-47
2023/07/12 14:54:33;;;;;;;5.45;0.88;;;;;;;24.76;38.76;101199.31;16107775;19;129660;-49
2023/07/12 15:00:16;;;;;;;2.47;0.90;;;;;;;24.79;38.70;101209.13;16118400;19;133905;-44
2023/07/12 15:05:38;;;;;;;2.92;0.73;;;;;;;24.71;38.18;101205.78;16119987;19;131105;-49
2023/07/12 15:11:03;;;;;;;1.90;0.70;;;;;;;24.70;38.59;101211.66;16122043;19;130062;-44
2023/07/12 15:16:25;;;;;;;2.35;0.70;;;;;;;24.67;38.61;101206.63;16124969;19;131552;-48
2023/07/12 15:21:47;;;;;;;2.65;0.80;;;;;;;24.64;38.39;101212.75;16122088;19;130475;-48
2023/07/12 15:27:13;;;;;;;4.07;0.93;;;;;;;24.63;38.20;101216.69;16119082;19;133432;-50
2023/07/12 15:32:35;;;;;;;4.72;1.00;;;;;;;24.60;37.92;101212.50;16119933;19;129901;-47
2023/07/12 15:38:02;;;;;;;3.55;1.00;;;;;;;24.60;38.42;101208.88;16121309;19;130467;-46
2023/07/12 15:43:28;;;;;;;3.83;0.80;;;;;;;24.57;37.63;101208.31;16118779;19;130332;-48
2023/07/12 15:48:50;;;;;;;2.53;0.80;;;;;;;24.60;38.06;101211.66;16114154;19;130734;-47
2023/07/12 15:54:17;;;;;;;6.57;0.88;;;;;;;24.62;37.94;101201.88;16115123;19;129832;-49
2023/07/12 15:59:40;;;;;;;6.07;1.00;;;;;;;24.69;37.66;101190.41;16118108;19;130492;-50
2023/07/12 16:05:04;;;;;;;6.20;1.60;;;;;;;24.73;37.60;101191.53;16108224;19;131031;-50
2023/07/12 16:10:26;;;;;;;4.33;1.10;;;;;;;24.78;37.42;101191.50;16110346;19;131422;-46
2023/07/12 16:15:50;;;;;;;7.53;1.00;;;;;;;24.78;37.90;101202.69;16112804;19;129819;-50
2023/07/12 16:21:17;;;;;;;3.78;1.05;;;;;;;24.76;37.58;101193.72;16110258;19;129998;-50
2023/07/12 16:26:39;;;;;;;8.38;1.23;;;;;;;24.75;37.78;101202.41;16109971;19;130233;-51
2023/07/12 16:32:01;;;;;;;6.07;1.20;;;;;;;24.74;37.96;101201.56;16114307;19;130243;-51
2023/07/12 16:37:23;;;;;;;5.50;1.15;;;;;;;24.74;37.73;101207.16;16109035;19;129813;-48
2023/07/12 16:42:47;;;;;;;6.32;0.98;;;;;;;24.73;37.79;101202.72;16108495;19;129357;-48
2023/07/12 16:48:11;;;;;;;4.18;1.20;;;;;;;24.71;37.61;101210.53;16108749;19;133458;-54
2023/07/12 16:53:34;;;;;;;4.57;1.30;;;;;;;24.69;37.67;101213.59;16108779;19;130627;-49
2023/07/12 16:58:56;;;;;;;5.22;1.05;;;;;;;24.70;37.50;101218.06;16112593;19;130603;-54
2023/07/12 17:04:19;;;;;;;4.10;1.00;;;;;;;24.71;37.61;101216.13;16112723;19;130212;-56
2023/07/12 17:09:42;;;;;;;5.95;0.85;;;;;;;24.72;37.49;101215.03;16108484;19;129510;-53
2023/07/12 17:15:09;;;;;;;3.67;1.10;;;;;;;24.73;37.44;101216.69;16108062;19;130862;-55
2023/07/12 17:20:35;;;;;;;6.00;1.00;;;;;;;24.77;36.98;101211.38;16093449;19;131133;-53
2023/07/12 17:25:58;;;;;;;7.35;1.00;;;;;;;24.73;34.72;101217.53;16110257;19;129906;-48
2023/07/12 17:31:36;;;;;;;8.57;1.10;;;;;;;24.72;35.47;101220.63;16105221;19;129814;-56
2023/07/12 17:36:59;;;;;;;5.28;1.20;;;;;;;24.69;34.67;101233.19;16106308;19;129878;-52
2023/07/12 17:42:21;;;;;;;6.03;0.88;;;;;;;24.69;34.61;101232.34;16106030;19;131483;-52
2023/07/12 17:47:45;;;;;;;4.60;0.85;;;;;;;24.67;33.99;101234.59;16100515;19;130889;-54
2023/07/12 17:53:16;;;;;;;13.00;1.20;;;;;;;24.65;33.52;101237.69;16105053;19;130526;-53
2023/07/12 17:58:40;;;;;;;5.57;0.90;;;;;;;24.65;33.28;101231.22;16107041;19;130100;-51
2023/07/12 18:04:03;;;;;;;6.18;1.48;;;;;;;24.64;33.38;101229.53;16104707;19;130511;-54
2023/07/12 18:09:25;;;;;;;10.50;1.13;;;;;;;24.61;33.23;101230.13;16107493;19;129661;-49
2023/07/12 18:14:50;;;;;;;6.75;1.15;;;;;;;24.58;33.13;101232.38;16087644;19;130301;-50
2023/07/12 18:20:12;;;;;;;11.23;1.40;;;;;;;24.57;33.04;101238.22;16103048;19;130978;-50
2023/07/12 18:25:38;;;;;;;6.90;0.93;;;;;;;24.52;32.08;101249.44;16100831;19;133001;-50
2023/07/12 18:31:00;;;;;;;4.88;1.00;;;;;;;24.43;31.90;101251.94;16116264;19;130550;-52
2023/07/12 18:36:29;;;;;;;4.13;1.02;;;;;;;24.36;31.39;101254.19;16119269;19;130236;-51
2023/07/12 18:41:53;;;;;;;8.35;1.00;;;;;;;24.29;30.99;101267.56;16114730;19;129838;-52
2023/07/12 18:47:16;;;;;;;4.35;1.08;;;;;;;24.21;31.54;101271.72;16115709;19;130852;-49
2023/07/12 18:52:38;;;;;;;8.27;1.13;;;;;;;24.17;31.42;101277.03;16119594;19;130124;-56
2023/07/12 18:58:02;;;;;;;7.78;1.13;;;;;;;24.11;31.06;101280.94;16115451;19;130404;-52
2023/07/12 19:03:33;;;;;;;8.45;1.33;;;;;;;24.08;31.24;101289.88;16110762;19;130461;-52
2023/07/12 19:08:56;;;;;;;14.45;1.20;;;;;;;24.08;31.16;101284.28;16117911;19;131057;-52
2023/07/12 19:14:21;;;;;;;5.35;1.42;;;;;;;24.02;30.85;101279.75;16118843;19;129528;-48
2023/07/12 19:19:44;;;;;;;;;;;;;;;23.96;31.16;101282.56;16114619;19;131234;-53
2023/07/12 19:25:15;;;;;;;5.53;1.05;;;;;;;23.97;31.24;101294.56;16109681;19;132377;-53
2023/07/12 19:30:38;;;;;;;7.45;1.95;;;;;;;23.92;31.28;101297.38;16109622;19;131271;-54
2023/07/12 19:36:00;;;;;;;8.52;1.52;;;;;;;23.88;31.38;101301.81;16111983;19;131232;-51
2023/07/12 19:41:25;;;;;;;3.08;0.90;;;;;;;23.87;31.53;101312.16;16112034;19;130615;-49
2023/07/12 19:46:48;;;;;;;;;;;;;;;23.82;31.80;101310.16;16109771;19;129420;-51
2023/07/12 19:52:13;;;;;;;10.35;1.50;;;;;;;23.82;32.02;101320.50;16112817;19;131184;-52
2023/07/12 19:57:35;;;;;;;5.10;0.93;;;;;;;23.84;32.34;101323.88;16114853;19;130701;-51
2023/07/12 20:02:57;;;;;;;8.63;1.20;;;;;;;23.87;32.46;101328.91;16108733;19;130895;-51
2023/07/12 20:08:19;;;;;;;10.00;1.65;;;;;;;23.91;32.52;101338.41;16103854;19;131283;-53
2023/07/12 20:13:42;;;;;;;8.20;1.27;;;;;;;23.94;33.10;101354.66;16097097;19;129740;-52
2023/07/12 20:19:04;;;;;;;8.30;1.13;;;;;;;23.97;32.94;101345.72;16107926;19;129901;-51
2023/07/12 20:24:27;;;;;;;7.55;1.50;;;;;;;24.01;33.15;101354.41;16114820;19;130426;-52
2023/07/12 20:29:49;;;;;;;9.40;1.50;;;;;;;24.03;32.94;101348.53;16109614;19;135404;-51
2023/07/12 20:35:12;;;;;;;7.95;1.27;;;;;;;24.05;33.13;101351.88;16107937;19;129641;-53
2023/07/12 20:40:36;;;;;;;6.32;1.13;;;;;;;24.06;33.13;101359.16;16109783;19;130494;-50
2023/07/12 20:46:00;;;;;;;6.65;1.45;;;;;;;24.06;33.35;101357.19;16106340;19;130086;-51
2023/07/12 20:51:24;;;;;;;9.50;0.93;;;;;;;24.06;33.06;101353.56;16105558;19;129397;-51
2023/07/12 20:56:46;;;;;;;5.05;1.45;;;;;;;24.05;33.63;101361.13;16105938;19;129514;-49
2023/07/12 21:02:09;;;;;;;6.75;1.33;;;;;;;24.06;33.77;101361.97;16106784;19;131150;-52
2023/07/12 21:07:31;;;;;;;6.03;1.00;;;;;;;24.04;33.89;101372.56;16104981;19;131400;-48
2023/07/12 21:12:53;;;;;;;5.18;0.98;;;;;;;24.02;33.89;101364.47;16103596;19;130105;-51
2023/07/12 21:18:15;;;;;;;6.60;1.23;;;;;;;24.01;33.91;101368.38;16104625;19;130958;-52
2023/07/12 21:23:39;;;;;;;4.07;1.00;;;;;;;24.01;34.04;101379.56;16104545;19;129782;-50
2023/07/12 21:29:01;;;;;;;4.82;1.45;;;;;;;24.01;34.28;101375.91;16099334;19;130910;-50
2023/07/12 21:34:23;;;;;;;4.70;0.90;;;;;;;23.99;34.33;101381.78;16096362;19;132221;-52
2023/07/12 21:39:45;;;;;;;3.75;1.00;;;;;;;23.97;34.35;101379.25;16100885;19;130329;-46
2023/07/12 21:45:07;;;;;;;6.50;1.02;;;;;;;23.98;34.46;101382.88;16101150;19;131028;-52
2023/07/12 21:50:29;;;;;;;4.38;1.08;;;;;;;23.96;34.26;101388.75;16098348;19;131866;-51
2023/07/12 21:55:51;;;;;;;5.30;0.88;;;;;;;23.95;34.72;101392.66;16099582;19;132182;-48
2023/07/12 22:01:15;;;;;;;3.88;1.00;;;;;;;23.95;34.82;101391.81;16098630;19;131578;-49
2023/07/12 22:06:42;;;;;;;5.22;1.20;;;;;;;23.94;35.02;101396.56;16099565;19;131619;-51
2023/07/12 22:12:04;;;;;;;3.72;1.00;;;;;;;23.93;34.74;101394.88;16097893;19;129925;-50
2023/07/12 22:17:26;;;;;;;5.05;1.10;;;;;;;23.92;35.00;101404.38;16102704;19;131998;-51
2023/07/12 22:22:49;;;;;;;3.58;0.93;;;;;;;23.92;35.15;101398.78;16098053;19;131421;-53
2023/07/12 22:28:11;;;;;;;4.90;0.98;;;;;;;23.92;34.87;101392.38;16100657;19;131062;-50
2023/07/12 22:33:33;;;;;;;6.32;1.13;;;;;;;23.91;34.84;101402.69;16101770;19;131033;-48
2023/07/12 22:38:55;;;;;;;4.93;1.10;;;;;;;23.92;35.18;101403.53;16096555;19;129921;-52
2023/07/12 22:44:17;;;;;;;2.92;1.05;;;;;;;23.91;35.10;101413.88;16097919;19;132154;-51
2023/07/12 22:49:39;;;;;;;5.10;0.80;;;;;;;23.89;35.45;101410.50;16099774;19;129930;-55
2023/07/12 22:55:02;;;;;;;5.75;1.00;;;;;;;23.87;35.26;101407.16;16094179;19;129503;-52
2023/07/12 23:00:24;;;;;;;13.88;1.80;;;;;;;23.87;35.66;101411.88;16093120;19;132167;-52
2023/07/12 23:05:48;;;;;;;9.80;1.65;;;;;;;23.85;35.45;101409.38;16098062;19;130450;-51
2023/07/12 23:11:13;;;;;;;5.97;1.25;;;;;;;23.84;36.11;101407.69;16091497;19;130839;-48
2023/07/12 23:16:35;;;;;;;10.65;1.23;;;;;;;23.85;35.61;101408.50;16098623;19;130901;-48
2023/07/12 23:21:57;;;;;;;5.82;1.08;;;;;;;23.85;35.88;101408.50;16113338;19;130155;-52
2023/07/12 23:27:19;;;;;;;7.15;1.13;;;;;;;23.85;35.91;101412.16;16101251;19;130078;-51
2023/07/12 23:32:41;;;;;;;6.63;1.17;;;;;;;23.84;35.77;101410.47;16104374;19;131225;-53
2023/07/12 23:38:03;;;;;;;7.35;1.63;;;;;;;23.84;36.20;101410.47;16110405;19;130243;-53
2023/07/12 23:43:25;;;;;;;5.53;1.20;;;;;;;23.84;36.08;101401.25;16110255;19;130867;-49
2023/07/12 23:48:47;;;;;;;7.25;1.27;;;;;;;23.81;36.12;101400.69;16109472;19;130405;-53
2023/07/12 23:54:09;;;;;;;5.28;1.20;;;;;;;23.81;36.30;101402.63;16108214;19;131561;-51
2023/07/12 23:59:32;;;;;;;8.75;1.70;;;;;;;23.81;36.29;101402.63;16108939;19;130760;-50
